createdAt,value
2018-12-07T00:00:30.203Z,27.40
2018-12-07T00:02:57.730Z,29.77
2018-12-07T00:05:25.072Z,26.37
2018-12-07T00:07:52.421Z,26.33
2018-12-07T00:10:19.784Z,24.67
2018-12-07T00:12:47.094Z,23.77
2018-12-07T00:15:14.485Z,23.47
2018-12-07T00:17:41.842Z,22.67
2018-12-07T00:20:09.334Z,26.70
2018-12-07T00:22:36.762Z,24.80
2018-12-07T00:25:04.531Z,24.70
2018-12-07T00:27:31.992Z,24.73
2018-12-07T00:29:59.674Z,23.77
2018-12-07T00:32:27.073Z,22.13
2018-12-07T00:34:54.435Z,23.17
2018-12-07T00:37:21.798Z,21.67
2018-12-07T00:39:49.182Z,25.30
2018-12-07T00:42:16.636Z,24.30
2018-12-07T00:44:43.974Z,24.97
2018-12-07T00:47:11.315Z,25.07
2018-12-07T00:49:38.685Z,22.20
2018-12-07T00:52:06.089Z,25.60
2018-12-07T00:54:33.480Z,24.17
2018-12-07T00:57:00.838Z,22.50
2018-12-07T00:59:28.207Z,22.87
2018-12-07T01:01:57.608Z,23.10
2018-12-07T01:04:24.962Z,24.90
2018-12-07T01:06:52.319Z,27.00
2018-12-07T01:09:19.696Z,27.07
2018-12-07T01:11:47.140Z,25.80
2018-12-07T01:14:14.476Z,22.60
2018-12-07T01:16:42.965Z,22.27
2018-12-07T01:19:10.320Z,25.30
2018-12-07T01:21:37.774Z,23.33
2018-12-07T01:24:05.142Z,25.10
2018-12-07T01:26:32.468Z,23.80
2018-12-07T01:28:59.874Z,26.33
2018-12-07T01:31:27.296Z,27.53
2018-12-07T01:33:54.686Z,25.47
2018-12-07T01:36:22.177Z,25.33
2018-12-07T01:38:49.554Z,23.70
2018-12-07T01:41:16.936Z,24.77
2018-12-07T01:43:44.258Z,23.70
2018-12-07T01:46:11.674Z,23.57
2018-12-07T01:48:39.059Z,22.30
2018-12-07T01:51:06.525Z,24.20
2018-12-07T01:53:34.205Z,23.67
2018-12-07T01:56:01.566Z,26.23
2018-12-07T01:58:28.912Z,21.53
2018-12-07T02:00:56.267Z,22.20
2018-12-07T02:03:23.878Z,22.60
2018-12-07T02:05:51.264Z,23.00
2018-12-07T02:08:18.643Z,24.80
2018-12-07T02:10:46.043Z,22.87
2018-12-07T02:13:13.377Z,24.83
2018-12-07T02:15:40.822Z,23.57
2018-12-07T02:18:08.245Z,26.00
2018-12-07T02:20:35.625Z,24.07
2018-12-07T02:23:02.994Z,22.13
2018-12-07T02:25:30.434Z,22.50
2018-12-07T02:27:59.320Z,20.63
2018-12-07T02:30:26.835Z,22.67
2018-12-07T02:32:54.247Z,21.87
2018-12-07T02:35:21.580Z,19.97
2018-12-07T02:37:48.960Z,26.03
2018-12-07T02:40:16.306Z,23.93
2018-12-07T02:42:43.649Z,23.13
2018-12-07T02:45:11.014Z,21.50
2018-12-07T02:47:38.363Z,22.47
2018-12-07T02:50:05.726Z,23.80
2018-12-07T02:52:33.236Z,24.03
2018-12-07T02:55:00.728Z,23.07
2018-12-07T02:57:28.080Z,23.03
2018-12-07T02:59:55.424Z,25.93
2018-12-07T03:02:22.795Z,26.03
2018-12-07T03:04:50.182Z,26.90
2018-12-07T03:07:17.592Z,25.07
2018-12-07T03:09:44.980Z,25.43
2018-12-07T03:12:12.438Z,25.17
2018-12-07T03:14:39.773Z,25.17
2018-12-07T03:17:07.158Z,26.53
2018-12-07T03:19:34.573Z,26.30
2018-12-07T03:22:01.941Z,27.90
2018-12-07T03:24:29.302Z,28.70
2018-12-07T03:26:56.645Z,29.37
2018-12-07T03:29:24.299Z,26.10
2018-12-07T03:31:51.649Z,24.87
2018-12-07T03:34:19.017Z,25.67
2018-12-07T03:36:46.388Z,24.50
2018-12-07T03:39:13.713Z,24.47
2018-12-07T03:41:41.107Z,26.57
2018-12-07T03:44:08.556Z,26.67
2018-12-07T03:46:35.914Z,28.60
2018-12-07T03:49:03.260Z,29.53
2018-12-07T03:51:30.627Z,26.30
2018-12-07T03:53:58.079Z,25.97
2018-12-07T03:56:25.428Z,26.40
2018-12-07T03:58:52.762Z,28.00
2018-12-07T04:01:20.475Z,27.23
2018-12-07T04:03:47.885Z,26.50
2018-12-07T04:06:15.264Z,27.83
2018-12-07T04:08:42.594Z,29.40
2018-12-07T04:11:09.968Z,28.10
2018-12-07T04:13:37.273Z,28.07
2018-12-07T04:16:04.683Z,26.20
2018-12-07T04:18:32.114Z,26.20
2018-12-07T04:20:59.462Z,26.80
2018-12-07T04:23:26.844Z,26.97
2018-12-07T04:25:54.218Z,29.30
2018-12-07T04:28:21.630Z,29.27
2018-12-07T04:30:48.988Z,30.43
2018-12-07T04:33:16.432Z,28.90
2018-12-07T04:35:43.809Z,29.50
2018-12-07T04:38:11.189Z,57.27
2018-12-07T04:40:38.728Z,52.53
2018-12-07T04:43:06.103Z,35.00
2018-12-07T04:45:33.621Z,56.77
2018-12-07T04:48:01.000Z,51.70
2018-12-07T04:50:28.357Z,41.23
2018-12-07T04:52:55.797Z,46.57
2018-12-07T04:55:24.303Z,39.43
2018-12-07T04:57:51.728Z,36.80
2018-12-07T05:00:19.104Z,30.40
2018-12-07T05:02:46.465Z,35.60
2018-12-07T05:05:13.793Z,34.27
2018-12-07T05:07:41.189Z,30.00
2018-12-07T05:10:08.727Z,30.03
2018-12-07T05:12:36.262Z,28.00
2018-12-07T05:15:03.869Z,31.80
2018-12-07T05:17:31.303Z,31.90
2018-12-07T05:19:58.950Z,32.00
2018-12-07T05:22:26.311Z,31.47
2018-12-07T05:24:53.682Z,29.20
2018-12-07T05:27:21.026Z,29.80
2018-12-07T05:29:48.476Z,29.20
2018-12-07T05:32:15.840Z,28.20
2018-12-07T05:34:43.296Z,27.80
2018-12-07T05:37:10.731Z,30.27
2018-12-07T05:39:38.102Z,30.53
2018-12-07T05:42:05.503Z,28.23
2018-12-07T05:45:57.449Z,28.00
2018-12-07T05:48:24.865Z,24.87
2018-12-07T05:50:52.334Z,25.60
2018-12-07T05:53:19.752Z,27.87
2018-12-07T05:55:47.109Z,26.87
2018-12-07T05:58:14.485Z,25.60
2018-12-07T06:00:41.811Z,27.50
2018-12-07T06:03:09.221Z,30.70
2018-12-07T06:05:36.656Z,28.30
2018-12-07T06:08:04.008Z,26.73
2018-12-07T06:10:31.450Z,27.67
2018-12-07T06:12:58.851Z,29.30
2018-12-07T06:15:26.301Z,28.27
2018-12-07T06:17:53.728Z,27.60
2018-12-07T06:20:21.416Z,26.60
2018-12-07T06:22:48.844Z,29.70
2018-12-07T06:25:16.217Z,31.03
2018-12-07T06:27:43.708Z,30.93
2018-12-07T06:30:11.132Z,44.77
2018-12-07T06:32:38.557Z,31.30
2018-12-07T06:35:05.923Z,30.00
2018-12-07T06:37:33.302Z,27.33
2018-12-07T06:40:00.728Z,26.33
2018-12-07T06:42:28.100Z,26.73
2018-12-07T06:44:55.797Z,25.47
2018-12-07T06:47:23.213Z,29.27
2018-12-07T06:49:50.546Z,31.00
2018-12-07T06:52:17.924Z,28.43
2018-12-07T06:54:45.908Z,28.90
2018-12-07T06:57:13.355Z,29.90
2018-12-07T06:59:40.706Z,28.50
2018-12-07T07:02:08.080Z,32.13
2018-12-07T07:04:35.514Z,31.40
2018-12-07T07:07:02.877Z,37.23
2018-12-07T07:09:30.258Z,37.43
2018-12-07T07:11:57.679Z,35.57
2018-12-07T07:14:24.979Z,37.87
2018-12-07T07:16:52.402Z,33.37
2018-12-07T07:19:19.863Z,30.93
2018-12-07T07:21:47.294Z,30.60
2018-12-07T07:24:14.670Z,30.87
2018-12-07T07:26:42.129Z,30.73
2018-12-07T07:29:09.577Z,30.50
2018-12-07T07:31:43.205Z,32.00
2018-12-07T07:34:06.350Z,31.17
2018-12-07T07:36:33.767Z,33.60
2018-12-07T07:39:01.162Z,30.50
2018-12-07T07:41:28.594Z,30.23
2018-12-07T07:43:56.185Z,31.43
2018-12-07T07:46:23.627Z,29.23
2018-12-07T07:48:51.058Z,27.63
2018-12-07T07:51:18.716Z,30.50
2018-12-07T07:53:46.069Z,35.07
2018-12-07T07:56:15.536Z,35.20
2018-12-07T07:58:44.131Z,35.00
2018-12-07T08:01:11.630Z,31.03
2018-12-07T08:03:39.007Z,31.33
2018-12-07T08:06:06.450Z,30.83
2018-12-07T08:08:33.816Z,31.00
2018-12-07T08:11:01.233Z,29.47
2018-12-07T08:13:28.604Z,31.80
2018-12-07T08:15:55.947Z,32.20
2018-12-07T08:18:23.338Z,32.70
2018-12-07T08:20:51.972Z,30.73
2018-12-07T08:23:19.482Z,31.53
2018-12-07T08:25:46.943Z,30.57
2018-12-07T08:28:14.359Z,29.10
2018-12-07T08:30:41.824Z,28.50
2018-12-07T08:33:09.192Z,30.20
2018-12-07T08:35:36.661Z,30.10
2018-12-07T08:38:04.221Z,28.97
2018-12-07T08:40:31.953Z,28.10
2018-12-07T08:42:59.323Z,28.23
2018-12-07T08:45:26.828Z,27.40
2018-12-07T08:47:54.225Z,25.37
2018-12-07T08:50:21.622Z,27.83
2018-12-07T08:52:49.037Z,27.07
2018-12-07T08:55:16.401Z,24.67
2018-12-07T08:57:43.775Z,25.03
2018-12-07T09:00:11.345Z,25.40
2018-12-07T09:02:38.915Z,24.90
2018-12-07T09:05:06.440Z,23.43
2018-12-07T09:07:33.766Z,26.10
2018-12-07T09:10:01.133Z,26.00
2018-12-07T09:12:28.500Z,24.77
2018-12-07T09:14:56.189Z,24.50
2018-12-07T09:17:23.620Z,24.50
2018-12-07T09:19:50.965Z,26.03
2018-12-07T09:22:18.328Z,25.70
2018-12-07T09:24:45.684Z,26.83
2018-12-07T09:27:13.018Z,38.50
2018-12-07T09:29:40.393Z,32.53
2018-12-07T09:32:07.854Z,28.77
2018-12-07T09:34:35.181Z,29.67
2018-12-07T09:37:02.651Z,27.83
2018-12-07T09:39:29.996Z,28.47
2018-12-07T09:41:57.352Z,26.30
2018-12-07T09:44:24.728Z,27.70
2018-12-07T09:46:52.060Z,24.60
2018-12-07T09:49:19.415Z,24.63
2018-12-07T09:51:46.788Z,25.60
2018-12-07T09:54:14.141Z,25.10
2018-12-07T09:56:41.514Z,24.67
2018-12-07T09:59:08.953Z,26.50
2018-12-07T10:01:36.299Z,25.87
2018-12-07T10:04:03.690Z,27.50
2018-12-07T10:06:31.099Z,27.00
2018-12-07T10:08:58.489Z,26.30
2018-12-07T10:11:25.834Z,26.87
2018-12-07T10:13:53.174Z,28.10
2018-12-07T10:16:20.494Z,26.30
2018-12-07T10:18:47.961Z,27.47
2018-12-07T10:21:15.327Z,26.60
2018-12-07T10:23:42.675Z,25.33
2018-12-07T10:26:10.388Z,26.37
2018-12-07T10:28:37.812Z,27.47
2018-12-07T10:31:05.149Z,29.60
2018-12-07T10:33:32.640Z,28.20
2018-12-07T10:36:00.002Z,27.60
2018-12-07T10:38:27.616Z,27.50
2018-12-07T10:40:54.995Z,27.80
2018-12-07T10:43:22.339Z,28.10
2018-12-07T10:45:49.725Z,27.67
2018-12-07T10:48:17.129Z,26.97
2018-12-07T10:50:44.527Z,28.03
2018-12-07T10:53:11.858Z,27.00
2018-12-07T10:55:39.230Z,27.70
2018-12-07T10:58:07.435Z,28.10
2018-12-07T11:00:40.468Z,27.00
2018-12-07T11:03:13.136Z,27.90
2018-12-07T11:05:47.760Z,28.50
2018-12-07T11:08:20.651Z,30.77
2018-12-07T11:10:53.873Z,30.30
2018-12-07T11:13:26.546Z,29.30
2018-12-07T11:15:59.361Z,30.67
2018-12-07T11:20:35.365Z,27.73
2018-12-07T11:23:27.074Z,28.40
2018-12-07T11:25:59.855Z,26.63
2018-12-07T11:28:32.696Z,27.00
2018-12-07T11:31:05.501Z,25.73
2018-12-07T11:33:40.128Z,27.60
2018-12-07T11:36:08.289Z,32.57
2018-12-07T11:38:35.831Z,29.50
2018-12-07T11:41:03.353Z,29.03
2018-12-07T11:43:30.750Z,26.67
2018-12-07T11:45:58.108Z,29.30
2018-12-07T11:48:25.806Z,32.87
2018-12-07T11:50:53.249Z,32.03
2018-12-07T11:53:20.783Z,28.50
2018-12-07T11:55:48.290Z,27.93
2018-12-07T11:58:15.706Z,28.50
2018-12-07T12:00:43.284Z,33.70
2018-12-07T12:03:10.715Z,31.20
2018-12-07T12:05:38.229Z,32.77
2018-12-07T12:08:05.971Z,33.53
2018-12-07T12:10:33.402Z,38.37
2018-12-07T12:13:00.760Z,30.17
2018-12-07T12:15:28.124Z,33.63
2018-12-07T12:17:58.521Z,31.90
2018-12-07T12:20:26.097Z,30.30
2018-12-07T12:22:53.439Z,26.10
2018-12-07T12:25:21.156Z,29.13
2018-12-07T12:27:48.582Z,28.17
2018-12-07T12:30:17.817Z,27.60
2018-12-07T12:32:45.374Z,28.27
2018-12-07T12:35:12.770Z,27.20
2018-12-07T12:37:40.137Z,27.40
2018-12-07T12:40:07.487Z,28.37
2018-12-07T12:42:34.827Z,27.73
2018-12-07T12:45:02.352Z,26.97
2018-12-07T12:47:29.756Z,28.67
2018-12-07T12:49:57.100Z,20.37
2018-12-07T12:52:24.645Z,23.47
2018-12-07T12:54:52.208Z,23.30
2018-12-07T12:57:19.586Z,22.90
2018-12-07T12:59:46.937Z,19.20
2018-12-07T13:02:14.714Z,18.67
2018-12-07T13:04:42.058Z,18.23
2018-12-07T13:07:09.391Z,18.10
2018-12-07T13:09:36.764Z,21.10
2018-12-07T13:12:04.686Z,22.57
2018-12-07T13:14:32.094Z,24.17
2018-12-07T13:16:59.458Z,19.30
2018-12-07T13:19:26.899Z,18.40
2018-12-07T13:21:54.386Z,17.13
2018-12-07T13:24:21.819Z,16.40
2018-12-07T13:26:49.179Z,16.77
2018-12-07T13:29:16.669Z,15.67
2018-12-07T13:31:44.172Z,17.47
2018-12-07T13:34:11.653Z,20.20
2018-12-07T13:36:39.023Z,18.17
2018-12-07T13:39:07.573Z,18.60
2018-12-07T13:41:35.107Z,19.60
2018-12-07T13:44:02.536Z,17.90
2018-12-07T13:46:30.174Z,22.80
2018-12-07T13:48:57.738Z,19.07
2018-12-07T13:51:25.278Z,20.20
2018-12-07T13:53:52.844Z,20.00
2018-12-07T13:56:20.487Z,18.47
2018-12-07T13:58:48.058Z,21.70
2018-12-07T14:01:15.592Z,16.33
2018-12-07T14:03:43.378Z,17.07
2018-12-07T14:06:10.872Z,14.70
2018-12-07T14:08:38.740Z,14.80
2018-12-07T14:11:06.282Z,15.57
2018-12-07T14:13:33.968Z,15.93
2018-12-07T14:16:01.420Z,14.67
2018-12-07T14:18:29.090Z,15.50
2018-12-07T14:20:56.731Z,15.20
2018-12-07T14:23:24.308Z,16.10
2018-12-07T14:25:51.897Z,16.30
2018-12-07T14:28:19.472Z,16.10
2018-12-07T14:30:47.056Z,14.43
2018-12-07T14:33:14.688Z,15.10
2018-12-07T14:35:42.235Z,14.93
2018-12-07T14:38:09.833Z,15.17
2018-12-07T14:40:37.363Z,14.17
2018-12-07T14:43:04.993Z,15.07
2018-12-07T14:45:32.642Z,16.20
2018-12-07T14:48:00.107Z,15.97
2018-12-07T14:50:27.934Z,15.37
2018-12-07T14:52:55.439Z,16.70
2018-12-07T14:55:22.841Z,16.17
2018-12-07T14:57:50.480Z,16.80
2018-12-07T15:00:18.141Z,17.00
2018-12-07T15:02:45.665Z,16.20
2018-12-07T15:05:13.238Z,17.70
2018-12-07T15:07:40.842Z,16.97
2018-12-07T15:10:10.222Z,16.93
2018-12-07T15:12:37.793Z,16.43
2018-12-07T15:15:05.684Z,15.40
2018-12-07T15:17:33.269Z,15.43
2018-12-07T15:20:00.951Z,17.93
2018-12-07T15:22:28.524Z,17.50
2018-12-07T15:24:56.074Z,17.50
2018-12-07T15:27:23.829Z,19.10
2018-12-07T15:29:51.485Z,17.50
2018-12-07T15:32:19.099Z,15.93
2018-12-07T15:34:46.593Z,15.90
2018-12-07T15:37:14.313Z,17.17
2018-12-07T15:39:41.855Z,17.50
2018-12-07T15:42:09.401Z,16.20
2018-12-07T15:44:37.961Z,14.80
2018-12-07T15:47:05.422Z,15.20
2018-12-07T15:49:32.967Z,15.00
2018-12-07T15:52:00.473Z,16.17
2018-12-07T15:54:27.865Z,16.83
2018-12-07T15:56:55.269Z,17.73
2018-12-07T15:59:23.844Z,16.63
2018-12-07T16:01:51.425Z,16.33
2018-12-07T16:04:18.933Z,15.63
2018-12-07T16:08:11.058Z,15.93
2018-12-07T16:10:38.679Z,15.70
2018-12-07T16:13:06.356Z,15.30
2018-12-07T16:15:34.337Z,15.93
2018-12-07T16:18:01.933Z,16.67
2018-12-07T16:20:29.791Z,28.63
2018-12-07T16:24:21.562Z,16.13
2018-12-07T16:26:49.083Z,17.13
2018-12-07T16:29:16.775Z,16.90
2018-12-07T16:31:44.404Z,16.80
2018-12-07T16:34:12.103Z,16.70
2018-12-07T16:36:39.637Z,17.00
2018-12-07T16:39:07.677Z,15.60
2018-12-07T16:41:35.378Z,15.20
2018-12-07T16:44:02.990Z,14.83
2018-12-07T16:46:30.740Z,15.57
2018-12-07T16:48:58.374Z,15.57
2018-12-07T16:51:25.819Z,15.60
2018-12-07T16:53:54.046Z,16.10
2018-12-07T16:56:21.825Z,22.50
2018-12-07T16:58:49.344Z,23.90
2018-12-07T17:01:16.889Z,17.57
2018-12-07T17:03:44.403Z,16.40
2018-12-07T17:06:14.504Z,15.57
2018-12-07T17:08:44.756Z,15.17
2018-12-07T17:11:13.915Z,81.70
2018-12-07T17:13:44.303Z,23.07
2018-12-07T17:16:13.892Z,16.30
2018-12-07T17:18:41.660Z,19.00
2018-12-07T17:21:10.410Z,20.00
2018-12-07T17:23:38.309Z,18.50
2018-12-07T17:26:05.974Z,18.50
2018-12-07T17:28:33.693Z,17.97
2018-12-07T17:31:01.372Z,17.67
2018-12-07T17:33:29.058Z,19.20
2018-12-07T17:35:56.512Z,17.47
2018-12-07T17:38:23.871Z,18.33
2018-12-07T17:40:51.800Z,16.60
2018-12-07T17:43:19.494Z,17.37
2018-12-07T17:52:45.887Z,16.00
2018-12-07T17:55:13.294Z,15.27
2018-12-07T17:57:42.436Z,15.80
2018-12-07T18:00:13.918Z,16.27
2018-12-07T18:02:42.635Z,17.23
2018-12-07T18:05:11.980Z,17.77
2018-12-07T18:07:41.193Z,17.97
2018-12-07T18:10:10.427Z,18.93
2018-12-07T18:12:39.413Z,17.47
2018-12-07T18:15:09.862Z,20.60
2018-12-07T18:17:38.886Z,19.97
2018-12-07T18:20:08.884Z,20.33
2018-12-07T18:22:37.704Z,18.40
2018-12-07T18:25:07.605Z,17.97
2018-12-07T18:27:36.674Z,17.13
2018-12-07T18:30:06.310Z,17.77
2018-12-07T18:32:35.001Z,17.80
2018-12-07T18:35:03.949Z,17.07
2018-12-07T18:37:33.318Z,17.37
2018-12-07T18:40:02.403Z,23.97
2018-12-07T18:42:31.749Z,21.17
2018-12-07T18:45:01.223Z,27.50
2018-12-07T18:47:30.307Z,25.13
2018-12-07T18:49:59.389Z,21.40
2018-12-07T18:52:29.567Z,22.10
2018-12-07T18:54:58.829Z,21.63
2018-12-07T18:57:27.805Z,20.47
2018-12-07T18:59:56.942Z,20.60
2018-12-07T19:02:26.292Z,24.73
2018-12-07T19:04:55.249Z,22.00
2018-12-07T19:07:24.062Z,21.50
2018-12-07T19:09:53.199Z,21.40
2018-12-07T19:12:22.742Z,21.17
2018-12-07T19:14:51.527Z,19.03
2018-12-07T19:17:19.120Z,21.40
2018-12-07T19:19:46.828Z,21.00
2018-12-07T19:22:14.637Z,24.17
2018-12-07T19:24:42.141Z,20.60
2018-12-07T19:27:09.734Z,22.17
2018-12-07T19:29:37.390Z,21.13
2018-12-07T19:32:05.026Z,22.30
2018-12-07T19:34:32.636Z,20.80
2018-12-07T19:37:00.260Z,23.70
2018-12-07T19:39:27.884Z,25.40
2018-12-07T19:41:55.448Z,23.03
2018-12-07T19:44:23.581Z,23.70
2018-12-07T19:46:51.077Z,23.80
2018-12-07T19:49:18.698Z,23.33
2018-12-07T19:51:46.607Z,31.10
2018-12-07T19:54:14.211Z,32.97
2018-12-07T19:56:41.690Z,26.60
2018-12-07T19:59:09.198Z,21.33
2018-12-07T20:01:36.632Z,20.87
2018-12-07T20:04:04.186Z,19.93
2018-12-07T20:06:31.866Z,19.17
2018-12-07T20:08:59.416Z,21.50
2018-12-07T20:11:27.133Z,20.67
2018-12-07T20:13:55.165Z,19.43
2018-12-07T20:16:22.813Z,21.67
2018-12-07T20:18:50.296Z,20.10
2018-12-07T20:21:17.803Z,21.40
2018-12-07T20:23:45.438Z,22.93
2018-12-07T20:26:13.242Z,21.70
2018-12-07T20:28:41.236Z,22.60
2018-12-07T20:31:08.883Z,21.93
2018-12-07T20:33:36.719Z,24.07
2018-12-07T20:36:04.502Z,34.30
2018-12-07T20:38:32.421Z,27.27
2018-12-07T20:41:00.051Z,25.80
2018-12-07T20:43:27.875Z,26.90
2018-12-07T20:45:55.534Z,28.97
2018-12-07T20:48:23.278Z,32.00
2018-12-07T20:50:50.828Z,27.37
2018-12-07T20:53:19.058Z,25.00
2018-12-07T20:55:46.682Z,21.77
2018-12-07T20:58:14.446Z,20.20
2018-12-07T21:00:41.975Z,20.10
2018-12-07T21:03:09.558Z,19.93
2018-12-07T21:07:51.826Z,18.87
2018-12-07T21:10:53.933Z,23.50
2018-12-07T21:14:24.983Z,20.37
2018-12-07T21:17:02.711Z,21.17
2018-12-07T21:19:30.502Z,21.30
2018-12-07T21:21:58.115Z,20.10
2018-12-07T21:24:26.341Z,23.73
2018-12-07T21:26:54.008Z,23.00
2018-12-07T21:29:21.520Z,26.67
2018-12-07T21:31:49.227Z,36.07
2018-12-07T21:34:19.820Z,31.47
2018-12-07T21:36:47.600Z,23.90
2018-12-07T21:39:17.733Z,25.70
2018-12-07T21:41:45.291Z,25.10
2018-12-07T21:44:12.918Z,26.83
2018-12-07T21:46:40.755Z,26.83
2018-12-07T21:49:08.393Z,26.13
2018-12-07T21:51:40.891Z,24.47
2018-12-07T21:54:08.329Z,25.30
2018-12-07T21:56:35.992Z,23.67
2018-12-07T21:59:03.528Z,23.73
2018-12-07T22:01:31.005Z,25.60
2018-12-07T22:03:58.543Z,23.60
2018-12-07T22:06:26.294Z,21.70
2018-12-07T22:08:54.024Z,22.13
2018-12-07T22:11:21.710Z,20.90
2018-12-07T22:13:49.418Z,21.10
2018-12-07T22:16:16.959Z,20.17
2018-12-07T22:18:44.418Z,18.10
2018-12-07T22:21:12.101Z,21.00
2018-12-07T22:23:39.924Z,22.13
2018-12-07T22:26:07.778Z,20.60
2018-12-07T22:28:35.260Z,21.17
2018-12-07T22:31:02.721Z,22.67
2018-12-07T22:33:30.304Z,24.03
2018-12-07T22:35:58.199Z,24.50
2018-12-07T22:38:25.796Z,19.80
2018-12-07T22:40:53.706Z,18.23
2018-12-07T22:43:21.469Z,19.40
2018-12-07T22:45:49.518Z,21.43
2018-12-07T22:48:17.471Z,22.37
2018-12-07T22:50:45.023Z,24.53
2018-12-07T22:53:12.405Z,24.27
2018-12-07T22:55:39.755Z,24.10
2018-12-07T22:58:07.416Z,24.03
2018-12-07T23:00:34.772Z,26.50
2018-12-07T23:03:02.179Z,25.03
2018-12-07T23:05:29.586Z,25.57
2018-12-07T23:07:56.964Z,25.50
2018-12-07T23:10:24.624Z,22.07
2018-12-07T23:12:52.187Z,23.90
2018-12-07T23:15:19.615Z,26.20
2018-12-07T23:17:46.954Z,25.73
2018-12-07T23:20:14.370Z,26.77
2018-12-07T23:22:41.772Z,25.40
2018-12-07T23:25:09.145Z,25.07
2018-12-07T23:27:36.481Z,24.30
2018-12-07T23:30:04.486Z,24.40
2018-12-07T23:32:31.919Z,24.13
2018-12-07T23:34:59.380Z,22.67
2018-12-07T23:37:26.753Z,21.90
2018-12-07T23:39:54.203Z,18.27
2018-12-07T23:42:21.993Z,19.53
2018-12-07T23:44:49.415Z,20.27
2018-12-07T23:47:16.764Z,19.73
2018-12-07T23:49:44.143Z,20.83
2018-12-07T23:52:11.484Z,20.50
2018-12-07T23:54:38.923Z,19.10
2018-12-07T23:57:06.958Z,18.30
2018-12-07T23:59:34.337Z,20.23
